createdAt,value
2023-05-02T00:02:45.030Z,5.27
2023-05-02T00:05:12.690Z,4.33
2023-05-02T00:11:21.695Z,5.13
2023-05-02T00:14:14.079Z,4.63
2023-05-02T00:16:44.318Z,4.80
2023-05-02T00:19:12.366Z,6.00
2023-05-02T00:21:40.238Z,5.33
2023-05-02T00:24:07.796Z,5.10
2023-05-02T00:26:37.007Z,4.77
2023-05-02T00:32:07.976Z,5.03
2023-05-02T00:34:35.903Z,5.23
2023-05-02T00:37:03.376Z,5.27
2023-05-02T00:39:31.116Z,5.10
2023-05-02T00:41:59.392Z,4.83
2023-05-02T00:44:26.907Z,5.13
2023-05-02T00:49:59.154Z,6.53
2023-05-02T00:52:54.086Z,6.10
2023-05-02T00:55:21.884Z,5.97
2023-05-02T00:57:50.239Z,5.60
2023-05-02T01:00:47.039Z,5.40
2023-05-02T01:07:26.050Z,6.20
2023-05-02T01:10:09.237Z,6.73
2023-05-02T01:12:43.379Z,7.27
2023-05-02T01:15:16.363Z,7.07
2023-05-02T01:17:45.660Z,6.90
2023-05-02T01:20:17.342Z,7.60
2023-05-02T01:29:09.859Z,7.50
2023-05-02T01:31:41.952Z,7.40
2023-05-02T01:34:11.164Z,8.37
2023-05-02T01:36:47.200Z,7.77
2023-05-02T01:39:37.206Z,7.80
2023-05-02T01:42:05.605Z,8.13
2023-05-02T01:44:35.915Z,9.07
2023-05-02T01:47:05.884Z,9.23
2023-05-02T01:49:35.330Z,8.80
2023-05-02T01:55:17.008Z,8.27
2023-05-02T01:57:47.032Z,8.77
2023-05-02T02:03:19.006Z,8.60
2023-05-02T02:08:56.256Z,10.23
2023-05-02T02:12:33.455Z,8.70
2023-05-02T02:15:13.147Z,10.20
2023-05-02T02:17:46.090Z,11.10
2023-05-02T02:20:15.782Z,10.90
2023-05-02T02:22:44.818Z,10.77
2023-05-02T02:25:15.826Z,11.10
2023-05-02T02:27:43.557Z,10.13
2023-05-02T02:30:11.783Z,10.57
2023-05-02T02:35:48.277Z,10.47
2023-05-02T02:38:30.252Z,11.07
2023-05-02T02:41:12.900Z,10.77
2023-05-02T02:43:53.616Z,11.23
2023-05-02T02:46:29.885Z,11.07
2023-05-02T02:49:27.853Z,12.17
2023-05-02T02:52:15.088Z,12.90
2023-05-02T03:04:21.709Z,15.73
2023-05-02T03:06:49.610Z,14.50
2023-05-02T03:09:18.712Z,15.73
2023-05-02T03:21:18.891Z,14.03
2023-05-02T03:23:47.322Z,15.10
2023-05-02T03:26:15.251Z,16.67
2023-05-02T03:28:42.778Z,17.13
2023-05-02T03:31:39.183Z,17.27
2023-05-02T03:34:06.742Z,18.23
2023-05-02T03:36:35.218Z,16.83
2023-05-02T03:39:49.292Z,18.30
2023-05-02T03:49:13.654Z,21.07
2023-05-02T03:51:44.351Z,21.10
2023-05-02T03:54:13.099Z,22.37
2023-05-02T04:02:48.162Z,23.57
2023-05-02T04:05:20.203Z,23.77
2023-05-02T04:08:01.466Z,24.20
2023-05-02T04:16:52.030Z,26.27
2023-05-02T04:22:30.009Z,25.70
2023-05-02T04:25:02.147Z,24.17
2023-05-02T04:38:04.968Z,24.13
2023-05-02T04:47:18.570Z,26.00
2023-05-02T04:49:46.704Z,25.20
2023-05-02T04:52:16.424Z,26.73
2023-05-02T04:59:18.080Z,23.87
2023-05-02T05:02:25.373Z,25.50
2023-05-02T05:04:53.336Z,26.53
2023-05-02T07:26:59.346Z,18.40
2023-05-02T07:29:26.972Z,17.67
2023-05-02T07:31:54.382Z,17.87
2023-05-02T07:34:22.246Z,19.13
2023-05-02T07:36:50.378Z,18.10
2023-05-02T07:39:17.803Z,16.97
2023-05-02T07:41:45.733Z,17.63
2023-05-02T07:44:13.490Z,14.63
2023-05-02T07:46:41.162Z,15.80
2023-05-02T07:49:08.587Z,15.10
2023-05-02T07:51:36.075Z,15.97
2023-05-02T07:54:03.420Z,16.27
2023-05-02T07:56:30.847Z,15.93
2023-05-02T07:58:58.811Z,15.43
2023-05-02T08:01:26.313Z,14.50
2023-05-02T08:03:53.738Z,13.87
2023-05-02T08:06:22.479Z,13.00
2023-05-02T08:08:49.957Z,13.60
2023-05-02T08:11:17.804Z,15.07
2023-05-02T08:13:45.158Z,14.93
2023-05-02T08:16:12.953Z,17.30
2023-05-02T08:18:41.225Z,16.03
2023-05-02T08:21:08.761Z,16.13
2023-05-02T08:23:37.502Z,15.23
2023-05-02T08:26:05.009Z,14.33
2023-05-02T08:28:33.816Z,14.40
2023-05-02T08:31:01.666Z,14.97
2023-05-02T08:33:29.044Z,14.70
2023-05-02T08:35:56.456Z,17.47
2023-05-02T08:38:23.775Z,17.60
2023-05-02T08:40:51.561Z,16.83
2023-05-02T08:43:19.422Z,17.10
2023-05-02T08:45:46.838Z,16.50
2023-05-02T08:48:17.039Z,18.77
2023-05-02T08:50:48.035Z,18.90
2023-05-02T08:53:18.074Z,17.87
2023-05-02T08:55:46.638Z,17.37
2023-05-02T08:58:15.372Z,16.80
2023-05-02T09:00:48.276Z,15.70
2023-05-02T09:03:33.677Z,16.53
2023-05-02T09:06:05.199Z,16.20
2023-05-02T09:08:37.705Z,17.37
2023-05-02T09:11:06.926Z,16.27
2023-05-02T09:20:00.212Z,16.00
2023-05-02T09:22:32.026Z,16.87
2023-05-02T09:25:02.225Z,17.13
2023-05-02T09:27:48.787Z,16.60
2023-05-02T09:30:26.863Z,15.80
2023-05-02T09:33:02.565Z,13.97
2023-05-02T09:39:18.270Z,14.57
2023-05-02T09:41:49.662Z,14.03
2023-05-02T09:44:19.373Z,13.27
2023-05-02T09:46:49.839Z,13.80
2023-05-02T09:49:20.856Z,13.07
2023-05-02T09:51:49.435Z,13.13
2023-05-02T09:54:37.010Z,13.00
2023-05-02T09:57:07.067Z,13.63
2023-05-02T09:59:34.496Z,11.73
2023-05-02T10:02:04.341Z,9.60
2023-05-02T10:04:33.645Z,9.83
2023-05-02T10:07:02.523Z,7.10
2023-05-02T10:09:34.600Z,7.67
2023-05-02T10:12:08.142Z,7.93
2023-05-02T10:21:03.440Z,9.37
2023-05-02T10:23:30.907Z,9.80
2023-05-02T10:26:00.329Z,8.47
2023-05-02T10:28:30.020Z,8.13
2023-05-02T10:31:00.462Z,8.77
2023-05-02T10:33:29.061Z,8.40
2023-05-02T10:35:56.453Z,7.80
2023-05-02T10:38:24.947Z,8.40
2023-05-02T10:41:01.931Z,7.43
2023-05-02T10:43:33.875Z,7.87
2023-05-02T10:46:03.505Z,7.60
2023-05-02T10:48:31.068Z,7.70
2023-05-02T10:51:01.666Z,6.97
2023-05-02T10:53:37.221Z,7.30
2023-05-02T10:56:12.229Z,6.90
2023-05-02T10:58:40.546Z,6.83
2023-05-02T11:01:27.225Z,6.50
2023-05-02T11:03:59.330Z,6.67
2023-05-02T11:06:33.354Z,6.73
2023-05-02T11:09:16.102Z,7.40
2023-05-02T11:11:46.465Z,6.43
2023-05-02T11:14:26.093Z,6.33
2023-05-02T11:17:05.501Z,5.93
2023-05-02T11:19:39.066Z,5.97
2023-05-02T11:22:33.119Z,5.40
2023-05-02T11:25:00.735Z,5.60
2023-05-02T11:27:31.885Z,5.60
2023-05-02T11:30:10.215Z,5.27
2023-05-02T11:32:47.559Z,5.20
2023-05-02T11:35:19.221Z,5.40
2023-05-02T11:37:56.674Z,5.10
2023-05-02T11:40:26.541Z,4.83
2023-05-02T11:42:54.422Z,5.03
2023-05-02T11:45:22.471Z,5.07
2023-05-02T11:47:51.465Z,4.97
2023-05-02T11:50:18.976Z,4.83
2023-05-02T11:52:47.448Z,4.23
2023-05-02T11:55:15.820Z,5.40
2023-05-02T11:57:43.085Z,5.07
2023-05-02T12:00:11.814Z,4.93
2023-05-02T12:02:41.172Z,5.00
2023-05-02T12:05:10.733Z,4.93
2023-05-02T12:07:42.965Z,4.77
2023-05-02T12:10:11.343Z,5.20
2023-05-02T12:12:40.801Z,5.40
2023-05-02T12:15:11.020Z,5.60
2023-05-02T12:17:44.549Z,5.73
2023-05-02T12:20:12.628Z,4.97
2023-05-02T12:22:40.137Z,4.60
2023-05-02T12:25:08.929Z,5.00
2023-05-02T12:27:37.843Z,5.17
2023-05-02T12:30:05.970Z,4.93
2023-05-02T12:32:35.793Z,4.27
2023-05-02T12:35:04.624Z,4.90
2023-05-02T12:37:33.391Z,5.00
2023-05-02T12:40:01.090Z,5.30
2023-05-02T12:42:28.831Z,5.07
2023-05-02T12:44:56.966Z,5.10
2023-05-02T12:47:24.892Z,4.93
2023-05-02T12:49:57.746Z,4.57
2023-05-02T12:52:51.368Z,4.37
2023-05-02T12:55:24.384Z,4.27
2023-05-02T12:58:04.138Z,3.93
2023-05-02T13:00:33.120Z,3.77
2023-05-02T13:03:00.904Z,3.87
2023-05-02T13:05:28.341Z,3.27
2023-05-02T13:07:59.201Z,5.10
2023-05-02T13:10:27.763Z,4.33
2023-05-02T13:12:55.525Z,4.30
2023-05-02T13:15:23.249Z,4.53
2023-05-02T13:17:52.393Z,5.00
2023-05-02T13:20:20.043Z,4.67
2023-05-02T13:22:47.436Z,4.83
2023-05-02T13:25:14.795Z,4.90
2023-05-02T13:27:42.616Z,4.63
2023-05-02T13:30:11.365Z,5.03
2023-05-02T13:32:39.447Z,4.13
2023-05-02T13:35:07.813Z,4.40
2023-05-02T13:37:35.222Z,4.73
2023-05-02T13:40:02.894Z,5.10
2023-05-02T13:42:31.069Z,4.43
2023-05-02T13:44:58.664Z,5.07
2023-05-02T13:47:26.568Z,5.10
2023-05-02T13:49:53.901Z,5.43
2023-05-02T13:52:21.226Z,5.60
2023-05-02T13:54:49.301Z,5.80
2023-05-02T13:57:16.578Z,5.90
2023-05-02T13:59:44.010Z,5.67
2023-05-02T14:02:12.366Z,5.60
2023-05-02T14:04:39.611Z,6.73
2023-05-02T14:07:07.411Z,7.17
2023-05-02T14:09:35.055Z,6.63
2023-05-02T14:12:02.835Z,6.60
2023-05-02T14:14:30.637Z,6.17
2023-05-02T14:16:58.025Z,6.10
2023-05-02T14:19:25.847Z,6.47
2023-05-02T14:21:53.443Z,5.90
2023-05-02T14:24:20.937Z,6.10
2023-05-02T14:26:48.401Z,6.10
2023-05-02T14:29:15.826Z,5.80
2023-05-02T14:31:43.174Z,5.80
2023-05-02T14:34:10.642Z,5.70
2023-05-02T14:36:38.195Z,5.63
2023-05-02T14:39:05.671Z,4.90
2023-05-02T14:41:32.996Z,4.97
2023-05-02T14:44:00.705Z,4.50
2023-05-02T14:46:28.101Z,4.93
2023-05-02T14:48:55.558Z,4.97
2023-05-02T14:51:23.094Z,4.97
2023-05-02T14:53:50.677Z,5.10
2023-05-02T14:56:18.720Z,5.23
2023-05-02T14:58:46.563Z,4.63
2023-05-02T15:01:21.754Z,5.00
2023-05-02T15:04:05.054Z,4.87
2023-05-02T15:06:34.925Z,5.30
2023-05-02T15:09:02.932Z,4.43
2023-05-02T15:11:30.710Z,5.20
2023-05-02T15:13:59.386Z,5.00
2023-05-02T15:16:27.637Z,5.03
2023-05-02T15:18:55.775Z,5.20
2023-05-02T15:21:23.693Z,4.80
2023-05-02T15:23:51.342Z,4.70
2023-05-02T15:26:18.910Z,4.30
2023-05-02T15:28:46.423Z,3.83
2023-05-02T15:31:14.073Z,4.03
2023-05-02T15:33:41.384Z,3.93
2023-05-02T15:36:09.693Z,3.67
2023-05-02T15:38:39.516Z,4.23
2023-05-02T15:41:09.603Z,4.27
2023-05-02T15:43:37.848Z,4.13
2023-05-02T15:46:05.323Z,3.90
2023-05-02T15:48:33.548Z,4.53
2023-05-02T15:51:02.245Z,4.20
2023-05-02T15:53:29.925Z,4.20
2023-05-02T15:55:57.601Z,4.63
2023-05-02T15:58:25.139Z,5.10
2023-05-02T16:00:52.919Z,4.50
2023-05-02T16:03:20.414Z,4.30
2023-05-02T16:05:47.985Z,4.20
2023-05-02T16:08:15.570Z,4.67
2023-05-02T16:10:43.410Z,4.63
2023-05-02T16:13:10.888Z,4.67
2023-05-02T16:15:39.487Z,4.17
2023-05-02T16:18:10.297Z,4.50
2023-05-02T16:55:31.299Z,4.47
2023-05-02T16:57:58.846Z,5.70
2023-05-02T17:00:30.404Z,5.17
2023-05-02T17:02:58.769Z,5.80
